createdAt,value
2023-04-22T03:31:35.700Z,82.10
2023-04-22T04:03:46.025Z,82.10
2023-04-22T04:32:47.966Z,82.10
2023-04-22T04:36:57.316Z,82.10
2023-04-22T05:04:20.367Z,82.10
2023-04-22T05:07:58.246Z,82.10
2023-04-22T05:55:11.894Z,82.30
2023-04-22T15:50:33.419Z,81.30
2023-04-22T15:53:30.078Z,81.30
2023-04-22T15:55:58.643Z,81.30
2023-04-22T15:58:25.991Z,81.20
2023-04-22T16:07:11.023Z,81.30
2023-04-22T16:09:38.499Z,81.20
2023-04-22T16:12:13.915Z,81.20
2023-04-22T16:17:43.853Z,81.30
2023-04-22T16:20:13.449Z,81.20
2023-04-22T16:22:49.534Z,81.20
2023-04-22T16:28:05.216Z,81.20
2023-04-22T16:30:32.635Z,81.20
2023-04-22T16:33:10.326Z,81.10
2023-04-22T16:38:25.103Z,81.20
2023-04-22T16:41:03.911Z,81.10
2023-04-22T16:43:31.651Z,81.20
2023-04-22T16:45:59.305Z,81.20
2023-04-22T16:58:24.446Z,81.00
2023-04-22T17:10:09.216Z,81.00
2023-04-22T17:15:41.807Z,80.90
2023-04-22T17:18:17.259Z,80.80
2023-04-22T17:23:32.963Z,80.90
2023-04-22T17:32:06.100Z,80.90
2023-04-22T17:34:36.439Z,80.80
2023-04-22T17:37:03.845Z,80.80
2023-04-22T17:40:17.983Z,80.60
2023-04-22T17:42:47.302Z,80.80
2023-04-22T17:45:27.710Z,80.70
2023-04-22T17:47:54.741Z,80.70
2023-04-22T17:50:26.009Z,80.50
2023-04-22T17:52:53.379Z,80.70
2023-04-22T17:55:20.653Z,80.60
2023-04-22T17:57:48.708Z,80.70
2023-04-22T18:00:23.779Z,80.70
2023-04-22T18:09:33.926Z,81.00
2023-04-22T18:12:02.188Z,80.80
2023-04-22T18:14:29.233Z,81.60
2023-04-22T18:17:00.379Z,80.90
2023-04-22T18:20:17.391Z,81.00
2023-04-22T18:23:01.516Z,81.00
2023-04-22T18:28:41.808Z,81.10
2023-04-22T18:31:33.329Z,81.20
2023-04-22T18:34:16.066Z,81.10
2023-04-22T18:37:02.948Z,81.20
2023-04-22T18:39:33.435Z,81.30
2023-04-22T18:46:23.715Z,81.30
2023-04-22T18:51:57.679Z,81.20
2023-04-22T18:54:24.737Z,81.40
2023-04-22T18:56:52.410Z,81.40
2023-04-22T18:59:19.789Z,81.30
2023-04-22T19:01:47.152Z,81.30
2023-04-22T19:04:21.312Z,81.30
2023-04-22T19:06:48.944Z,81.50
2023-04-22T19:09:16.203Z,81.40
2023-04-22T19:11:43.719Z,81.40
2023-04-22T19:14:11.026Z,81.40
2023-04-22T19:16:52.139Z,81.40
2023-04-22T19:19:20.095Z,81.60
2023-04-22T19:21:49.191Z,81.50
2023-04-22T19:24:16.425Z,81.50
2023-04-22T19:26:44.426Z,81.50
2023-04-22T19:29:16.364Z,81.60
2023-04-22T19:31:44.140Z,81.50
2023-04-22T19:34:11.668Z,81.60
2023-04-22T19:36:39.534Z,81.50
2023-04-22T19:39:07.002Z,81.50
2023-04-22T19:41:34.385Z,81.60
2023-04-22T19:44:01.481Z,81.60
2023-04-22T19:46:28.533Z,81.60
2023-04-22T19:48:55.946Z,81.60
2023-04-22T19:51:23.276Z,81.60
2023-04-22T19:53:50.921Z,81.60
2023-04-22T20:00:18.447Z,81.70
2023-04-22T20:02:46.123Z,81.60
2023-04-22T20:05:21.911Z,81.60
2023-04-22T20:07:52.072Z,81.70
2023-04-22T20:10:19.463Z,81.60
2023-04-22T20:12:46.633Z,81.60
2023-04-22T20:15:14.184Z,81.60
2023-04-22T20:17:41.747Z,81.60
2023-04-22T20:20:13.420Z,81.60
2023-04-22T20:22:41.797Z,81.60
2023-04-22T20:25:12.547Z,81.60
2023-04-22T20:27:39.987Z,81.70
2023-04-22T20:30:07.380Z,81.60
2023-04-22T20:32:34.699Z,81.70
2023-04-22T20:35:01.817Z,81.60
2023-04-22T20:37:31.960Z,81.70
2023-04-22T20:39:59.841Z,81.70
2023-04-22T20:42:26.841Z,81.70
2023-04-22T20:44:53.793Z,81.60
2023-04-22T20:47:20.770Z,81.70
2023-04-22T20:50:01.607Z,81.70
2023-04-22T20:52:29.768Z,81.70
2023-04-22T20:54:56.744Z,81.80
2023-04-22T20:57:23.790Z,81.80
2023-04-22T20:59:50.924Z,81.80
2023-04-22T21:02:18.512Z,81.80
2023-04-22T21:04:46.127Z,82.00
2023-04-22T21:07:15.407Z,82.00
2023-04-22T21:09:43.346Z,81.90
2023-04-22T21:12:10.864Z,81.90
2023-04-22T21:14:40.901Z,81.80
2023-04-22T21:17:15.598Z,81.90
2023-04-22T21:19:45.976Z,81.90
2023-04-22T21:22:13.685Z,81.80
2023-04-22T21:24:40.941Z,81.80
2023-04-22T21:27:08.451Z,81.70
2023-04-22T21:29:38.079Z,81.80
2023-04-22T21:32:09.742Z,81.70
2023-04-22T21:40:27.814Z,81.80
2023-04-22T22:09:03.920Z,81.90
2023-04-22T22:19:41.016Z,82.70
2023-04-22T22:26:41.177Z,82.00
2023-04-22T22:33:08.291Z,82.00
2023-04-22T22:36:13.501Z,82.10
2023-04-22T22:49:20.439Z,81.90
2023-04-22T22:51:47.542Z,81.90
2023-04-22T22:54:14.563Z,81.80
2023-04-22T22:56:41.623Z,81.80
2023-04-22T22:59:08.655Z,81.80
2023-04-22T23:01:35.746Z,81.90
2023-04-22T23:04:03.058Z,81.80
2023-04-22T23:06:32.003Z,81.70
2023-04-22T23:08:59.194Z,81.80
2023-04-22T23:11:26.680Z,81.70
2023-04-22T23:13:53.565Z,81.80
2023-04-22T23:16:23.211Z,81.70
2023-04-22T23:18:50.536Z,81.80
2023-04-22T23:21:18.356Z,81.80
2023-04-22T23:23:45.564Z,81.80
2023-04-22T23:26:12.569Z,81.70
2023-04-22T23:28:39.654Z,81.70
2023-04-22T23:31:06.889Z,81.70
2023-04-22T23:33:34.883Z,81.80
2023-04-22T23:36:04.431Z,81.80
2023-04-22T23:38:31.352Z,81.80
2023-04-22T23:40:58.277Z,81.70
2023-04-22T23:43:25.216Z,81.70
2023-04-22T23:45:52.157Z,81.70
2023-04-22T23:48:19.134Z,81.70
2023-04-22T23:50:46.081Z,81.70
2023-04-22T23:53:12.999Z,81.60
2023-04-22T23:55:40.318Z,81.70
2023-04-22T23:58:07.332Z,81.80
